Accueil
METAR-TAF:

METAR-TAF

Aéroports :

Khon Kaen, Thaïlande

latitude: 16-26N, longitude: 102-50E, altitude: 165 m

Observation

Le bulletin a été fait il y a 19 minutes, à 20:00 UTC
Vent 4 kt de nord-ouest
Température 27°C
Humidité 84%
Pression 1009 hPa
Visibilité: 7000 m
Quelques nuages à une hauteur de 3000 ft
Nuages épars à une hauteur de 10000 ft

METAR: VTUK 072000Z 32004KT 7000 FEW030 SCT100 27/24 Q1009 NOSIG

Heure: 03:19 (20:19 UTC)

Prévision

Le bulletin a été fait il y a 3 heures et 19 minutes, à 17:00 UTC
Prévision valable du 07 à 18 UTC au 08 à 18 UTC
Vent 3 kt de nord-ouest
Visibilité: 9000 m
Quelques nuages à une hauteur de 3000 ft
Evoluant progressivement
du 08 à 01 UTC au 08 à 03 UTC
Vent 4 kt de sud/sud-ouest

TAF: VTUK 071700Z 0718/0818 32003KT 9000 FEW030 BECMG 0801/0803 21004KT

Observations et prévisions météorologiques de plus de 4000 aéroports (messages METAR et TAF).

Les stations disponibles sont représentées par des disques jaunes et rouges sur la carte.

Passer la souris dessus pour voir le nom de la station.

Cliquer dessus pour voir les observations et prévisions météorologiques.

Pour changer de carte: cliquez sur les boutons verts avec une croix noire pour zoomer, sur le bouton vert avec un tiret pour effectuer un zoom arrière, ou sur les flèches vertes pour les cartes adjacentes.


METAR-TAF: